Time;durP1;ratioP1;P1;durP2;ratioP2;P2;SDS_P1;SDS_P2;PMS_P1;PMS_P2;Temp;Humidity;BMP_temperature;BMP_pressure;BME280_temperature;BME280_humidity;BME280_pressure;Samples;Min_cycle;Max_cycle;Signal;HPM_P1;HPM_P2
2022/01/25 00:10:26;;;;;;;66.50;42.90;;;;;;;3.81;76.97;103218.13;3562144;40;20068;-65
2022/01/25 00:24:16;;;;;;;65.38;42.95;;;;;;;3.83;76.96;103216.34;3563434;40;20403;-64
2022/01/25 00:26:46;;;;;;;65.05;42.33;;;;;;;3.88;76.78;103224.34;3564011;40;20150;-64
2022/01/25 00:29:16;;;;;;;62.08;42.28;;;;;;;3.55;76.52;103155.91;3564496;40;20331;-64
2022/01/25 00:31:43;;;;;;;63.90;41.33;;;;;;;3.79;76.49;103193.28;3564648;40;20051;-64
2022/01/25 00:34:09;;;;;;;67.97;42.78;;;;;;;4.00;76.21;103218.22;3564231;40;20042;-64
2022/01/25 00:36:35;;;;;;;64.95;42.38;;;;;;;4.04;75.88;103226.19;3564355;40;20344;-65
2022/01/25 00:39:03;;;;;;;63.45;41.38;;;;;;;4.06;76.28;103228.84;3564698;40;20046;-65
2022/01/25 00:41:28;;;;;;;67.65;44.55;;;;;;;4.06;76.16;103227.09;3564061;40;20087;-63
2022/01/25 00:43:57;;;;;;;64.10;42.28;;;;;;;4.07;76.55;103220.00;3565805;40;20081;-64
2022/01/25 00:46:23;;;;;;;63.63;42.33;;;;;;;4.09;75.91;103220.88;3564638;40;20057;-64
2022/01/25 00:48:50;;;;;;;69.30;43.88;;;;;;;4.07;75.91;103215.56;3565593;40;20064;-64
2022/01/25 00:54:26;;;;;;;61.75;41.50;;;;;;;4.05;76.29;103208.44;3565750;40;20054;-63
2022/01/25 00:56:52;;;;;;;64.45;41.42;;;;;;;4.11;76.49;103205.81;3563567;40;20053;-64
2022/01/25 00:59:23;;;;;;;65.68;42.03;;;;;;;4.12;76.03;103218.22;3566796;40;20049;-64
2022/01/25 01:01:54;;;;;;;69.82;43.03;;;;;;;4.12;75.99;103212.91;3564424;40;20057;-65
2022/01/25 01:04:21;;;;;;;70.57;44.47;;;;;;;4.13;76.21;103215.59;3567409;40;20385;-64
2022/01/25 01:06:49;;;;;;;69.78;43.25;;;;;;;4.15;75.94;103212.91;3568223;40;20156;-66
2022/01/25 01:09:22;;;;;;;66.88;43.45;;;;;;;4.17;75.68;103200.50;3567447;40;20055;-65
2022/01/25 01:12:00;;;;;;;62.38;41.30;;;;;;;4.19;75.48;103206.75;3568538;40;20139;-64
2022/01/25 01:15:11;;;;;;;62.88;41.45;;;;;;;4.20;75.51;103216.50;3566155;40;20059;-65
2022/01/25 01:30:48;;;;;;;63.67;41.45;;;;;;;4.23;75.45;103218.28;3564762;40;19987;-65
2022/01/25 01:44:27;;;;;;;71.30;44.28;;;;;;;4.27;75.56;103222.72;3564434;40;20600;-65
2022/01/25 01:47:08;;;;;;;69.00;44.17;;;;;;;4.28;75.71;103220.09;3564891;40;20053;-64
2022/01/25 01:49:41;;;;;;;69.75;43.08;;;;;;;4.18;75.58;103195.19;3563709;40;20069;-65
2022/01/25 01:52:08;;;;;;;66.32;42.45;;;;;;;4.33;75.74;103218.31;3565076;40;20064;-64
2022/01/25 01:54:35;;;;;;;72.53;45.92;;;;;;;4.34;75.18;103221.84;3565603;40;20064;-64
2022/01/25 01:57:03;;;;;;;70.10;43.30;;;;;;;4.34;75.06;103220.06;3564872;40;20045;-64
2022/01/25 01:59:28;;;;;;;70.20;44.08;;;;;;;4.35;75.37;103221.88;3564069;40;20052;-63
2022/01/25 02:01:54;;;;;;;69.47;44.35;;;;;;;4.33;75.13;103223.63;3564722;40;20071;-64
2022/01/25 02:04:20;;;;;;;67.38;43.47;;;;;;;4.37;75.40;103229.84;3564217;40;20053;-64
2022/01/25 02:06:46;;;;;;;69.20;43.95;;;;;;;4.38;75.54;103223.66;3564783;40;20093;-63
2022/01/25 02:09:12;;;;;;;68.30;45.40;;;;;;;4.08;75.11;103164.09;3565882;40;20084;-63
2022/01/25 02:11:39;;;;;;;71.25;44.25;;;;;;;4.36;75.60;103212.97;3565900;40;20061;-64
2022/01/25 02:14:08;;;;;;;71.25;44.35;;;;;;;4.34;75.55;103212.09;3566676;40;20100;-64
2022/01/25 02:24:39;;;;;;;67.05;43.47;;;;;;;4.40;75.32;103213.88;3565275;40;20427;-63
2022/01/25 02:27:06;;;;;;;66.63;44.10;;;;;;;4.25;74.69;103185.47;3564620;40;20120;-63
2022/01/25 02:29:32;;;;;;;69.03;44.08;;;;;;;4.36;75.56;103202.34;3564053;40;20384;-64
2022/01/25 02:31:58;;;;;;;74.50;45.58;;;;;;;4.40;75.16;103205.88;3564571;40;20060;-63
2022/01/25 02:34:26;;;;;;;68.82;43.92;;;;;;;4.41;74.74;103205.03;3563770;40;20134;-64
2022/01/25 02:37:03;;;;;;;73.22;46.50;;;;;;;4.40;74.83;103201.44;3563984;40;20311;-63
2022/01/25 02:39:29;;;;;;;71.82;45.72;;;;;;;4.40;74.39;103203.22;3562415;40;20413;-64
2022/01/25 02:41:56;;;;;;;71.68;43.83;;;;;;;4.19;75.41;103167.69;3564108;40;20276;-64
2022/01/25 02:44:25;;;;;;;73.40;44.13;;;;;;;4.25;75.71;103166.81;3563830;40;20072;-64
2022/01/25 02:49:43;;;;;;;70.15;45.05;;;;;;;4.36;75.46;103183.69;3543154;40;20359;-63
2022/01/25 02:52:08;;;;;;;72.60;45.08;;;;;;;4.35;75.57;103179.25;3564025;40;20064;-65
2022/01/25 02:54:35;;;;;;;70.68;44.45;;;;;;;4.34;75.71;103188.13;3563892;40;20187;-63
2022/01/25 02:57:01;;;;;;;70.30;44.80;;;;;;;4.34;75.35;103187.22;3563414;40;20088;-64
2022/01/25 02:59:26;;;;;;;75.57;45.78;;;;;;;4.33;75.67;103185.47;3563793;40;20060;-64
2022/01/25 03:01:52;;;;;;;74.90;45.20;;;;;;;4.33;75.60;103186.34;3563524;40;20048;-64
2022/01/25 03:04:21;;;;;;;73.40;45.88;;;;;;;4.18;75.79;103160.56;3563629;40;20060;-64
2022/01/25 03:06:47;;;;;;;72.05;45.47;;;;;;;4.36;75.44;103189.03;3563461;40;20096;-63
2022/01/25 03:09:14;;;;;;;77.00;45.92;;;;;;;4.38;75.73;103179.28;3561077;40;20161;-63
2022/01/25 03:11:40;;;;;;;75.53;46.00;;;;;;;4.39;75.31;103183.69;3564229;40;20068;-63
2022/01/25 03:14:10;;;;;;;70.85;45.70;;;;;;;4.40;75.31;103188.13;3608598;22;20550;-65
2022/01/25 03:16:46;;;;;;;73.40;46.05;;;;;;;4.40;75.13;103182.81;3587058;40;20080;-65
2022/01/25 03:22:17;;;;;;;72.38;45.67;;;;;;;4.21;75.55;103143.72;3589120;40;20048;-65
2022/01/25 03:24:45;;;;;;;78.90;47.30;;;;;;;4.17;75.09;103133.97;3583053;40;20048;-65
2022/01/25 03:27:11;;;;;;;75.90;46.05;;;;;;;4.35;75.74;103165.06;3581523;40;20063;-65
2022/01/25 03:29:36;;;;;;;75.70;45.72;;;;;;;4.34;75.82;103169.47;3576962;40;20346;-65
2022/01/25 03:32:04;;;;;;;79.60;47.15;;;;;;;4.33;76.06;103170.38;3583693;40;20054;-65
2022/01/25 03:34:30;;;;;;;78.15;46.33;;;;;;;4.31;75.88;103161.47;3578880;40;20053;-66
2022/01/25 03:36:56;;;;;;;76.05;46.70;;;;;;;4.38;75.20;103168.63;3574342;40;20078;-66
2022/01/25 03:39:22;;;;;;;83.63;47.17;;;;;;;4.40;74.91;103157.97;3581786;40;20055;-65
2022/01/25 03:41:48;;;;;;;77.72;48.00;;;;;;;4.43;74.33;103160.63;3578429;40;20041;-65
2022/01/25 03:44:16;;;;;;;76.57;46.67;;;;;;;4.16;74.69;103108.25;3579545;40;20079;-66
2022/01/25 03:51:58;;;;;;;76.00;47.15;;;;;;;4.52;74.11;103163.31;3583293;40;20108;-64
2022/01/25 03:54:24;;;;;;;81.45;48.90;;;;;;;4.50;73.64;103159.75;3575911;40;20056;-67
2022/01/25 03:56:50;;;;;;;81.40;48.58;;;;;;;4.53;73.85;103164.19;3578543;40;20480;-64
2022/01/25 03:59:16;;;;;;;77.60;47.38;;;;;;;4.51;74.16;103163.31;3578689;40;20495;-65
2022/01/25 04:01:42;;;;;;;79.78;47.08;;;;;;;4.49;74.39;103160.63;3575693;40;20304;-65
2022/01/25 04:04:15;;;;;;;76.13;45.88;;;;;;;4.41;74.26;103151.78;3579168;40;20059;-65
2022/01/25 04:06:46;;;;;;;78.28;45.72;;;;;;;4.51;74.92;103163.31;3579356;40;20048;-65
2022/01/25 04:09:11;;;;;;;80.07;48.08;;;;;;;4.50;74.67;103167.72;3580360;40;20085;-65
2022/01/25 04:11:38;;;;;;;77.75;48.00;;;;;;;4.10;74.90;103098.47;3576802;40;20059;-64
2022/01/25 04:14:04;;;;;;;85.00;47.72;;;;;;;4.52;74.92;103175.72;3580356;40;20070;-65
2022/01/25 04:16:36;;;;;;;74.85;46.53;;;;;;;4.53;74.52;103173.06;3582432;40;20069;-65
2022/01/25 04:19:21;;;;;;;79.80;48.50;;;;;;;4.53;74.53;103172.19;3584124;40;20157;-65
2022/01/25 04:27:15;;;;;;;83.00;49.70;;;;;;;4.57;74.38;103169.53;3579048;40;20398;-65
2022/01/25 04:29:41;;;;;;;81.72;47.33;;;;;;;4.57;73.85;103163.31;3576240;40;20053;-65
2022/01/25 04:32:07;;;;;;;83.95;48.85;;;;;;;4.58;74.53;103165.09;3578355;40;20283;-63
2022/01/25 04:51:49;;;;;;;;;;;;;;;4.60;73.50;103158.00;3574624;40;20064;-64
2022/01/25 04:53:56;;;;;;;80.80;47.28;;;;;;;4.60;74.35;103163.31;3575769;40;20043;-64
2022/01/25 04:56:38;;;;;;;84.07;47.00;;;;;;;4.59;73.62;103150.88;3578569;40;20063;-64
2022/01/25 05:01:50;;;;;;;85.78;49.65;;;;;;;4.62;73.78;103145.53;3579123;40;20331;-64
2022/01/25 05:04:24;;;;;;;80.75;49.13;;;;;;;4.62;73.37;103146.44;3575229;40;20135;-64
2022/01/25 05:06:52;;;;;;;84.38;49.50;;;;;;;4.60;73.83;103152.69;3580999;40;20056;-63
2022/01/25 05:09:20;;;;;;;84.22;49.40;;;;;;;4.59;73.73;103145.53;3578754;40;20067;-64
2022/01/25 05:11:48;;;;;;;85.25;50.85;;;;;;;4.54;73.75;103147.34;3577052;40;20094;-63
2022/01/25 05:14:25;;;;;;;85.80;48.50;;;;;;;4.61;73.06;103152.66;3576489;40;20052;-64
2022/01/25 05:16:58;;;;;;;84.55;49.25;;;;;;;4.62;73.64;103145.53;3568255;40;20052;-64
2022/01/25 05:22:27;;;;;;;87.00;49.95;;;;;;;4.61;73.98;103142.00;3578369;40;20077;-64
2022/01/25 05:24:55;;;;;;;89.10;50.50;;;;;;;4.62;73.50;103151.75;3576726;40;20106;-63
2022/01/25 05:27:30;;;;;;;85.90;50.30;;;;;;;4.62;73.69;103145.53;3576914;40;20390;-64
2022/01/25 05:29:55;;;;;;;89.15;50.45;;;;;;;4.60;73.17;103147.34;3579135;40;20307;-64
2022/01/25 05:32:21;;;;;;;88.78;51.47;;;;;;;4.63;72.90;103147.31;3577279;40;20060;-63
2022/01/25 05:34:47;;;;;;;90.82;51.40;;;;;;;4.64;72.42;103146.44;3575328;40;20059;-64
2022/01/25 05:37:12;;;;;;;93.05;50.63;;;;;;;4.50;72.59;103124.22;3579443;40;20044;-64
2022/01/25 05:39:38;;;;;;;89.07;50.88;;;;;;;4.63;72.53;103147.31;3574836;40;20328;-64
2022/01/25 05:47:27;;;;;;;87.43;50.55;;;;;;;4.58;72.37;103120.69;3577314;40;20045;-64
2022/01/25 05:49:52;;;;;;;;;;;;;;;4.65;71.55;103135.78;3580362;40;20056;-64
2022/01/25 05:52:18;;;;;;;83.10;46.88;;;;;;;4.67;71.38;103142.91;3580071;40;19942;-64
2022/01/25 05:54:44;;;;;;;86.30;50.60;;;;;;;4.66;71.01;103147.31;3578494;40;20477;-64
2022/01/25 05:57:10;;;;;;;87.85;48.53;;;;;;;4.70;72.14;103145.56;3579354;40;20064;-64
2022/01/25 05:59:37;;;;;;;85.90;51.47;;;;;;;4.71;71.84;103140.22;3581972;40;20902;-64
2022/01/25 06:02:04;;;;;;;79.07;47.35;;;;;;;4.69;71.43;103131.34;3579493;40;20064;-64
2022/01/25 06:04:30;;;;;;;88.13;48.70;;;;;;;4.70;70.96;103133.13;3581529;40;20402;-64
2022/01/25 06:06:56;;;;;;;78.18;46.45;;;;;;;4.72;70.81;103142.00;3578612;40;20160;-64
2022/01/25 06:09:24;;;;;;;83.03;49.17;;;;;;;4.71;70.39;103145.56;3578233;40;20119;-64
2022/01/25 06:11:54;;;;;;;82.63;47.55;;;;;;;4.53;71.56;103109.13;3580463;40;20131;-64
2022/01/25 06:14:21;;;;;;;78.03;46.03;;;;;;;4.70;71.00;103130.47;3583885;40;20141;-64
2022/01/25 06:16:47;;;;;;;79.82;46.72;;;;;;;4.72;70.20;103142.00;3580728;40;20116;-64
2022/01/25 06:19:13;;;;;;;84.95;47.63;;;;;;;4.73;70.65;103143.78;3576738;40;20422;-64
2022/01/25 06:21:38;;;;;;;78.32;46.05;;;;;;;4.74;70.29;103140.22;3572060;40;20045;-64
2022/01/25 06:24:04;;;;;;;75.95;47.30;;;;;;;4.70;69.86;103129.59;3579029;40;20083;-63
2022/01/25 06:26:30;;;;;;;77.93;48.45;;;;;;;4.76;70.53;103142.91;3582747;40;20052;-63
2022/01/25 06:28:56;;;;;;;78.18;47.53;;;;;;;4.76;71.08;103140.25;3581617;40;20149;-64
2022/01/25 06:31:22;;;;;;;78.18;46.72;;;;;;;4.52;70.42;103096.72;3581494;40;20055;-63
2022/01/25 06:33:48;;;;;;;80.95;49.05;;;;;;;4.72;69.75;103136.66;3579795;40;20060;-63
2022/01/25 06:36:15;;;;;;;81.20;46.67;;;;;;;4.65;70.55;103117.13;3578542;40;20057;-64
2022/01/25 06:38:41;;;;;;;76.15;46.03;;;;;;;4.71;69.69;103129.56;3580079;40;20102;-64
2022/01/25 06:41:09;;;;;;;76.97;45.03;;;;;;;4.75;70.59;103143.78;3579983;40;20329;-63
2022/01/25 06:43:37;;;;;;;76.85;45.42;;;;;;;4.78;70.53;103142.00;3578465;40;20386;-63
2022/01/25 06:46:03;;;;;;;80.68;47.38;;;;;;;4.73;70.33;103137.56;3581620;40;20056;-63
2022/01/25 06:48:31;;;;;;;77.15;46.78;;;;;;;4.78;70.06;103146.44;3576169;40;20063;-64
2022/01/25 06:50:58;;;;;;;79.28;45.47;;;;;;;4.78;70.30;103151.75;3576499;40;20605;-63
2022/01/25 06:53:23;;;;;;;77.40;45.60;;;;;;;4.78;70.89;103147.31;3576996;40;20288;-64
2022/01/25 06:55:49;;;;;;;74.65;45.83;;;;;;;4.77;70.77;103142.88;3578232;40;20065;-64
2022/01/25 06:58:14;;;;;;;75.22;45.55;;;;;;;4.76;71.04;103140.25;3577027;40;20053;-63
2022/01/25 07:00:42;;;;;;;79.45;46.05;;;;;;;4.78;71.10;103141.09;3578305;40;20052;-64
2022/01/25 07:03:08;;;;;;;75.43;45.72;;;;;;;4.78;70.40;103159.75;3568679;40;20056;-64
2022/01/25 07:05:34;;;;;;;77.55;46.22;;;;;;;4.66;70.20;103139.31;3580731;40;20441;-64
2022/01/25 07:08:00;;;;;;;77.07;46.88;;;;;;;4.76;70.86;103156.22;3582677;40;20096;-64
2022/01/25 07:10:26;;;;;;;72.15;45.42;;;;;;;4.76;70.04;103165.09;3582673;40;20045;-63
2022/01/25 07:12:51;;;;;;;72.20;45.17;;;;;;;4.77;69.35;103166.88;3579635;40;20392;-64
2022/01/25 07:15:17;;;;;;;70.13;44.53;;;;;;;4.64;69.31;103147.34;3579912;40;20052;-64
2022/01/25 07:17:44;;;;;;;72.18;44.67;;;;;;;4.77;69.79;103172.19;3579004;40;20075;-64
2022/01/25 07:20:10;;;;;;;74.55;46.05;;;;;;;4.76;69.90;103166.88;3581720;40;20463;-64
2022/01/25 07:22:37;;;;;;;75.70;46.47;;;;;;;4.76;70.34;103162.44;3578072;40;20346;-63
2022/01/25 07:25:09;;;;;;;78.35;47.15;;;;;;;4.78;70.39;103160.63;3579518;40;20390;-64
2022/01/25 07:27:35;;;;;;;80.78;47.35;;;;;;;4.55;70.42;103114.47;3577950;40;20114;-64
2022/01/25 07:30:01;;;;;;;79.35;47.05;;;;;;;4.78;70.37;103167.75;3576423;40;20049;-64
2022/01/25 07:32:27;;;;;;;79.50;47.05;;;;;;;4.77;69.75;103166.88;3575492;40;20053;-65
2022/01/25 07:34:52;;;;;;;76.32;46.20;;;;;;;4.79;69.62;103164.19;3583193;40;20068;-64
2022/01/25 07:37:18;;;;;;;78.60;47.22;;;;;;;4.78;69.65;103165.97;3578976;40;20055;-64
2022/01/25 07:39:44;;;;;;;81.07;46.53;;;;;;;4.79;69.98;103159.78;3575055;40;20065;-64
2022/01/25 07:42:11;;;;;;;76.68;46.40;;;;;;;4.80;70.47;103160.66;3581028;40;20117;-64
2022/01/25 07:44:39;;;;;;;78.88;46.50;;;;;;;4.77;70.00;103158.88;3578085;40;20054;-64
2022/01/25 07:47:06;;;;;;;77.35;47.17;;;;;;;4.79;69.58;103164.19;3578590;40;20129;-64
2022/01/25 07:49:32;;;;;;;75.95;44.50;;;;;;;4.77;69.59;103164.19;3576647;40;20049;-64
2022/01/25 07:51:58;;;;;;;78.57;47.30;;;;;;;4.79;69.19;103174.84;3578478;40;20126;-65
2022/01/25 07:54:26;;;;;;;72.80;44.78;;;;;;;4.80;69.34;103168.66;3576934;40;20330;-64
2022/01/25 07:56:53;;;;;;;80.93;48.53;;;;;;;4.59;69.20;103134.88;3578090;40;20422;-64
2022/01/25 07:59:20;;;;;;;77.35;46.78;;;;;;;4.81;69.03;103179.28;3578667;40;20472;-64
2022/01/25 08:01:46;;;;;;;84.07;49.30;;;;;;;4.68;69.36;103150.88;3577623;40;20083;-64
2022/01/25 08:04:14;;;;;;;74.22;46.15;;;;;;;4.81;69.16;103173.97;3578669;40;20056;-64
2022/01/25 08:06:42;;;;;;;77.10;48.53;;;;;;;4.82;69.18;103173.09;3579089;40;20048;-64
2022/01/25 08:09:09;;;;;;;79.70;48.97;;;;;;;4.79;69.58;103169.53;3583630;40;20122;-64
2022/01/25 08:11:35;;;;;;;74.20;45.03;;;;;;;4.76;68.37;103172.22;3568373;40;20047;-64
2022/01/25 08:14:12;;;;;;;71.10;44.72;;;;;;;4.79;68.08;103169.53;3571695;40;20052;-64
2022/01/25 08:16:45;;;;;;;74.88;46.22;;;;;;;4.82;68.13;103162.44;3575222;40;20303;-64
2022/01/25 08:19:13;;;;;;;75.20;46.88;;;;;;;4.69;68.09;103142.00;3577054;40;20218;-65
2022/01/25 08:21:41;;;;;;;76.03;46.42;;;;;;;4.84;68.72;103168.63;3577152;40;20051;-64
2022/01/25 08:24:13;;;;;;;80.13;48.30;;;;;;;4.84;68.99;103173.09;3576900;40;20396;-65
2022/01/25 08:26:40;;;;;;;77.90;47.42;;;;;;;4.85;68.25;103173.09;3577424;40;20088;-64
2022/01/25 08:29:07;;;;;;;81.63;49.08;;;;;;;4.83;68.72;103172.19;3579524;40;20074;-64
2022/01/25 08:31:33;;;;;;;85.28;50.58;;;;;;;4.87;68.63;103179.28;3576156;40;20130;-64
2022/01/25 08:33:59;;;;;;;81.20;48.50;;;;;;;4.85;68.52;103170.44;3576196;40;20060;-64
2022/01/25 08:36:27;;;;;;;79.43;48.65;;;;;;;4.98;68.82;103183.72;3578726;40;20059;-64
2022/01/25 08:38:54;;;;;;;78.70;48.50;;;;;;;5.00;68.22;103184.63;3574980;40;20403;-64
2022/01/25 08:41:21;;;;;;;86.03;51.47;;;;;;;4.95;67.95;103178.41;3578166;40;20044;-64
2022/01/25 08:43:47;;;;;;;87.93;52.88;;;;;;;4.78;67.54;103144.66;3579059;40;20056;-66
2022/01/25 08:46:14;;;;;;;88.88;51.13;;;;;;;5.01;67.91;103181.06;3579764;40;20049;-65
2022/01/25 08:48:41;;;;;;;93.88;53.55;;;;;;;5.02;67.18;103177.53;3576200;40;20060;-65
2022/01/25 08:51:07;;;;;;;89.78;53.33;;;;;;;5.01;67.74;103187.31;3576528;40;20048;-65
2022/01/25 08:53:33;;;;;;;86.65;51.60;;;;;;;4.99;68.09;103182.84;3577078;40;20422;-65
2022/01/25 08:55:59;;;;;;;85.22;52.95;;;;;;;5.01;68.17;103191.72;3578003;40;20083;-66
2022/01/25 08:58:26;;;;;;;85.43;53.30;;;;;;;4.54;67.42;103110.94;3574336;40;20060;-65
2022/01/25 09:00:52;;;;;;;93.97;54.08;;;;;;;5.00;68.08;103185.50;3578795;40;20081;-65
2022/01/25 09:03:18;;;;;;;89.20;54.90;;;;;;;5.02;67.97;103198.84;3580007;40;20064;-65
2022/01/25 09:05:44;;;;;;;94.30;55.20;;;;;;;5.05;68.28;103194.41;3579430;40;20068;-66
2022/01/25 09:08:16;;;;;;;93.55;55.67;;;;;;;5.08;68.12;103198.84;3580144;40;20053;-67
2022/01/25 09:10:41;;;;;;;94.63;54.65;;;;;;;5.09;68.41;103195.28;3580365;40;20072;-66
2022/01/25 09:13:07;;;;;;;98.15;58.60;;;;;;;5.10;68.66;103197.94;3577322;40;20071;-65
2022/01/25 09:15:32;;;;;;;98.95;58.28;;;;;;;5.09;68.74;103196.16;3622246;22;20315;-65
2022/01/25 09:17:58;;;;;;;97.70;56.08;;;;;;;5.03;68.54;103187.28;3591522;40;20052;-65
2022/01/25 09:20:24;;;;;;;100.43;58.88;;;;;;;5.08;68.60;103188.19;3588611;40;20118;-65
2022/01/25 09:22:50;;;;;;;104.80;61.92;;;;;;;5.11;68.20;103198.84;3594640;40;20056;-65
2022/01/25 09:25:16;;;;;;;103.70;59.58;;;;;;;5.12;68.32;103201.50;3589722;40;20071;-66
2022/01/25 09:27:41;;;;;;;105.38;59.95;;;;;;;5.16;68.68;103197.03;3581905;40;20347;-66
2022/01/25 09:30:07;;;;;;;123.93;69.97;;;;;;;5.15;68.04;103194.41;3584465;40;20048;-65
2022/01/25 09:32:33;;;;;;;102.93;59.80;;;;;;;5.18;66.98;103197.94;3581161;40;20061;-64
2022/01/25 09:34:59;;;;;;;105.05;60.13;;;;;;;5.19;67.56;103202.38;3584381;40;20048;-65
2022/01/25 09:37:24;;;;;;;105.72;58.85;;;;;;;5.22;67.87;103198.81;3581917;40;20052;-65
2022/01/25 09:39:50;;;;;;;101.53;59.78;;;;;;;5.23;68.01;103198.84;3584507;40;20060;-65
2022/01/25 09:42:16;;;;;;;104.65;59.15;;;;;;;5.22;66.82;103202.38;3582183;40;20319;-66
2022/01/25 09:44:42;;;;;;;108.93;61.20;;;;;;;5.03;67.46;103172.19;3583026;40;20048;-65
2022/01/25 09:47:10;;;;;;;109.43;62.70;;;;;;;5.25;68.02;103202.38;3583167;40;20059;-65
2022/01/25 09:49:37;;;;;;;117.15;63.58;;;;;;;5.27;67.41;103208.59;3586129;40;20056;-65
2022/01/25 09:52:06;;;;;;;113.72;63.15;;;;;;;5.29;67.50;103209.47;3584888;40;20113;-65
2022/01/25 09:54:35;;;;;;;112.15;63.85;;;;;;;4.98;67.39;103159.75;3583756;40;20064;-65
2022/01/25 09:57:04;;;;;;;111.25;65.30;;;;;;;5.30;66.94;103205.03;3583563;40;20059;-65
2022/01/25 09:59:30;;;;;;;112.60;65.10;;;;;;;5.35;66.89;103222.78;3583217;40;20056;-65
2022/01/25 10:01:57;;;;;;;117.55;66.05;;;;;;;5.39;67.59;103215.66;3583628;40;20169;-65
2022/01/25 10:04:37;;;;;;;115.88;67.25;;;;;;;5.40;67.22;103211.25;3582714;40;20048;-65
2022/01/25 10:07:09;;;;;;;111.60;61.78;;;;;;;5.37;66.97;103217.47;3580874;40;20100;-65
2022/01/25 10:09:42;;;;;;;107.05;61.25;;;;;;;5.38;66.77;103223.69;3580407;40;20048;-65
2022/01/25 10:12:25;;;;;;;103.03;58.22;;;;;;;5.34;66.05;103221.03;3580524;40;20067;-65
2022/01/25 10:15:10;;;;;;;104.40;59.72;;;;;;;5.33;66.14;103221.94;3580494;40;20053;-65
2022/01/25 10:17:37;;;;;;;111.43;60.60;;;;;;;5.39;65.76;103217.44;3579499;40;20056;-65
2022/01/25 10:20:04;;;;;;;106.20;60.45;;;;;;;5.40;65.29;103216.59;3582415;40;20048;-66
2022/01/25 10:22:46;;;;;;;105.80;61.33;;;;;;;5.42;66.00;103222.78;3580499;40;20406;-66
2022/01/25 10:25:12;;;;;;;106.90;61.60;;;;;;;5.44;66.17;103218.34;3581005;40;20052;-66
2022/01/25 10:28:04;;;;;;;114.03;63.75;;;;;;;5.42;65.86;103217.44;3582941;40;20177;-66
2022/01/25 10:30:36;;;;;;;108.50;62.78;;;;;;;5.42;66.09;103220.13;3579085;40;20059;-65
2022/01/25 10:33:27;;;;;;;106.03;63.10;;;;;;;5.46;66.89;103213.91;3577361;40;20119;-66
2022/01/25 10:35:56;;;;;;;106.70;64.30;;;;;;;5.18;66.34;103157.94;3580841;40;20044;-65
2022/01/25 10:38:28;;;;;;;102.88;61.92;;;;;;;5.55;66.28;103214.78;3579209;40;20056;-65
2022/01/25 10:41:07;;;;;;;103.10;60.33;;;;;;;5.56;65.38;103219.22;3579980;40;20383;-65
2022/01/25 10:43:35;;;;;;;101.15;59.85;;;;;;;5.56;65.89;103213.00;3579409;40;20060;-65
2022/01/25 10:46:31;;;;;;;101.72;62.17;;;;;;;5.63;65.44;103220.06;3582408;40;20048;-67
2022/01/25 10:49:13;;;;;;;94.82;57.50;;;;;;;5.61;64.75;103202.28;3578167;40;20096;-65
2022/01/25 10:51:40;;;;;;;104.13;59.60;;;;;;;5.61;64.78;103210.28;3584462;40;20045;-67
2022/01/25 10:54:15;;;;;;;108.60;63.90;;;;;;;5.45;65.16;103177.44;3585765;40;20409;-65
2022/01/25 10:56:43;;;;;;;104.55;59.95;;;;;;;5.64;65.00;103211.16;3585962;40;20076;-65
2022/01/25 10:59:16;;;;;;;100.15;59.25;;;;;;;5.60;64.78;103204.06;3584395;40;20306;-65
2022/01/25 11:01:53;;;;;;;96.80;58.03;;;;;;;5.63;64.48;103213.84;3570233;40;20056;-65
2022/01/25 11:04:28;;;;;;;101.50;60.15;;;;;;;5.57;65.00;103206.75;3585984;40;20041;-66
2022/01/25 11:07:06;;;;;;;101.68;57.40;;;;;;;5.60;64.39;103206.75;3581040;40;20452;-64
2022/01/25 11:09:42;;;;;;;100.30;58.25;;;;;;;5.64;64.65;103215.63;3583028;40;20055;-65
2022/01/25 11:12:17;;;;;;;100.35;58.33;;;;;;;5.64;64.48;103211.16;3583139;40;20049;-65
2022/01/25 11:14:52;;;;;;;100.78;57.70;;;;;;;5.66;64.43;103206.72;3583319;40;20055;-64
2022/01/25 11:17:25;;;;;;;100.72;59.30;;;;;;;5.68;64.34;103212.06;3581768;40;20052;-65
2022/01/25 11:19:52;;;;;;;101.05;58.78;;;;;;;5.65;64.38;103207.63;3583958;40;20060;-64
2022/01/25 11:22:20;;;;;;;106.47;58.33;;;;;;;5.70;65.02;103223.63;3584208;40;20268;-64
2022/01/25 11:24:56;;;;;;;103.43;58.13;;;;;;;5.71;64.31;103212.94;3583537;40;20157;-64
2022/01/25 11:27:25;;;;;;;101.90;57.92;;;;;;;5.73;64.05;103211.16;3579295;40;20084;-66
2022/01/25 11:29:57;;;;;;;99.93;57.30;;;;;;;5.71;64.21;103209.38;3580099;40;20063;-66
2022/01/25 11:32:31;;;;;;;103.13;58.35;;;;;;;5.74;63.54;103217.38;3583887;40;20067;-66
2022/01/25 11:34:59;;;;;;;101.88;59.28;;;;;;;5.73;64.29;103220.94;3583620;40;20379;-65
2022/01/25 11:37:42;;;;;;;102.95;60.05;;;;;;;5.75;64.07;103217.38;3583469;40;20109;-65
2022/01/25 11:40:45;;;;;;;105.72;59.97;;;;;;;5.74;63.53;103210.28;3579588;40;20052;-66
2022/01/25 11:43:15;;;;;;;101.32;59.83;;;;;;;5.76;63.69;103221.81;3580950;40;20063;-66
2022/01/25 11:45:50;;;;;;;107.18;60.95;;;;;;;5.76;63.85;103218.25;3581275;40;20135;-65
2022/01/25 11:48:23;;;;;;;111.90;63.60;;;;;;;5.77;63.66;103212.00;3582467;40;20139;-66
2022/01/25 11:50:49;;;;;;;107.60;60.63;;;;;;;5.56;63.91;103178.31;3582888;40;20056;-66
2022/01/25 11:53:23;;;;;;;106.20;62.15;;;;;;;5.73;64.64;103195.13;3582875;40;20067;-66
2022/01/25 11:55:54;;;;;;;104.72;62.13;;;;;;;5.85;64.56;103214.69;3582384;40;20096;-65
2022/01/25 11:58:32;;;;;;;107.72;61.75;;;;;;;5.83;64.10;103212.00;3582264;40;20087;-65
2022/01/25 12:01:05;;;;;;;96.38;58.50;;;;;;;5.81;64.24;103209.34;3580656;40;20056;-65
2022/01/25 12:03:45;;;;;;;102.22;62.83;;;;;;;5.79;64.33;103204.91;3582219;40;20056;-66
2022/01/25 12:06:24;;;;;;;104.40;60.65;;;;;;;5.77;64.99;103204.00;3584408;40;20044;-65
2022/01/25 12:09:06;;;;;;;102.38;60.70;;;;;;;5.79;64.79;103200.44;3582949;40;20100;-65
2022/01/25 12:11:51;;;;;;;106.72;61.40;;;;;;;5.80;64.34;103201.34;3582383;40;20080;-65
2022/01/25 12:14:48;;;;;;;106.60;61.72;;;;;;;5.78;64.16;103185.34;3580745;40;20052;-65
2022/01/25 12:17:24;;;;;;;107.28;61.97;;;;;;;5.85;64.66;103199.53;3580904;40;20048;-66
2022/01/25 12:19:57;;;;;;;104.30;59.72;;;;;;;5.86;64.51;103190.63;3584530;40;20047;-66
2022/01/25 12:22:40;;;;;;;99.53;59.75;;;;;;;5.87;63.98;103188.84;3582410;40;20055;-65
2022/01/25 12:25:21;;;;;;;99.78;57.85;;;;;;;5.86;64.36;103195.97;3583072;40;20044;-66
2022/01/25 12:27:59;;;;;;;99.97;57.25;;;;;;;5.64;64.04;103152.47;3582577;40;20136;-65
2022/01/25 12:30:25;;;;;;;99.70;57.45;;;;;;;5.89;64.23;103195.06;3582827;40;20383;-68
2022/01/25 12:33:09;;;;;;;112.47;62.05;;;;;;;5.89;63.88;103195.06;3582768;40;20044;-65
2022/01/25 12:35:49;;;;;;;103.15;59.20;;;;;;;5.89;63.74;103187.06;3580362;40;20073;-66
2022/01/25 12:38:38;;;;;;;101.70;59.83;;;;;;;5.89;63.62;103176.38;3583815;40;20067;-66
2022/01/25 12:41:27;;;;;;;97.43;58.58;;;;;;;5.88;63.43;103171.97;3574759;40;20084;-65
2022/01/25 12:44:02;;;;;;;99.85;57.00;;;;;;;5.87;63.33;103170.16;3582867;40;20056;-66
2022/01/25 12:46:34;;;;;;;99.35;59.33;;;;;;;5.89;63.64;103184.41;3583664;40;20051;-66
2022/01/25 12:49:13;;;;;;;97.93;57.13;;;;;;;5.87;63.61;103170.16;3585062;40;20045;-66
2022/01/25 12:51:44;;;;;;;105.00;60.00;;;;;;;5.89;64.30;103177.28;3584119;40;20177;-65
2022/01/25 12:54:13;;;;;;;101.78;60.58;;;;;;;5.90;63.61;103175.47;3585396;40;20048;-65
2022/01/25 12:56:47;;;;;;;100.60;60.65;;;;;;;5.87;63.40;103175.50;3583491;40;20148;-65
2022/01/25 12:59:20;;;;;;;99.50;59.00;;;;;;;5.81;63.61;103153.31;3583590;40;20060;-66
2022/01/25 13:01:47;;;;;;;102.93;62.53;;;;;;;5.91;64.03;103162.16;3583870;40;20044;-65
2022/01/25 13:04:14;;;;;;;104.70;60.47;;;;;;;5.92;64.02;103153.22;3566327;40;20362;-66
2022/01/25 13:06:43;;;;;;;98.45;58.08;;;;;;;5.96;63.71;103152.38;3583602;40;20067;-65